Time;durP1;ratioP1;P1;durP2;ratioP2;P2;SDS_P1;SDS_P2;PMS_P1;PMS_P2;Temp;Humidity;BMP_temperature;BMP_pressure;BME280_temperature;BME280_humidity;BME280_pressure;Samples;Min_cycle;Max_cycle;Signal;HPM_P1;HPM_P2
2020/12/30 00:01:35;;;;;;;20.67;13.37;;;1.30;92.60;;;;;;5066332;28;20204;-83
2020/12/30 00:04:05;;;;;;;20.83;13.63;;;1.20;92.60;;;;;;5069733;28;20202;-83
2020/12/30 00:06:32;;;;;;;22.67;13.93;;;1.10;92.40;;;;;;5067132;28;20316;-82
2020/12/30 00:09:01;;;;;;;23.23;15.00;;;0.90;92.50;;;;;;5053160;28;20740;-83
2020/12/30 00:11:29;;;;;;;20.03;14.40;;;0.80;92.50;;;;;;5062991;28;20205;-81
2020/12/30 00:13:58;;;;;;;23.07;14.57;;;0.70;92.50;;;;;;5052401;28;20254;-83
2020/12/30 00:16:25;;;;;;;21.13;14.73;;;0.60;92.50;;;;;;5062569;28;20706;-83
2020/12/30 00:18:53;;;;;;;23.47;15.33;;;0.50;92.50;;;;;;5064529;28;20200;-84
2020/12/30 00:21:21;;;;;;;24.63;15.70;;;0.50;92.70;;;;;;5045139;28;20591;-81
2020/12/30 00:23:48;;;;;;;39.17;24.33;;;0.40;92.70;;;;;;5061950;28;20189;-81
2020/12/30 00:26:19;;;;;;;30.73;18.70;;;0.40;92.70;;;;;;5056471;28;20200;-80
2020/12/30 00:28:51;;;;;;;28.83;17.60;;;0.40;92.90;;;;;;5041086;28;20633;-79
2020/12/30 00:31:19;;;;;;;26.97;17.70;;;0.30;92.90;;;;;;5050673;28;20882;-80
2020/12/30 00:33:47;;;;;;;29.10;18.77;;;0.30;92.90;;;;;;5052701;28;20254;-83
2020/12/30 00:36:14;;;;;;;26.93;17.03;;;0.30;92.90;;;;;;5043753;28;20212;-81
2020/12/30 00:38:43;;;;;;;32.00;20.70;;;0.30;92.90;;;;;;5059623;28;20734;-81
2020/12/30 00:41:13;;;;;;;38.97;27.77;;;0.10;92.80;;;;;;5043089;28;20309;-82
2020/12/30 00:43:41;;;;;;;35.13;25.47;;;0.00;92.70;;;;;;5059287;28;20200;-80
2020/12/30 00:46:15;;;;;;;38.17;28.73;;;-0.10;92.60;;;;;;5055270;28;20185;-83
2020/12/30 00:48:47;;;;;;;40.87;27.83;;;-0.20;92.60;;;;;;5049868;28;20225;-81
2020/12/30 00:51:16;;;;;;;47.53;34.87;;;-0.20;92.70;;;;;;5064076;28;20456;-81
2020/12/30 00:53:44;;;;;;;41.17;28.90;;;-0.20;92.80;;;;;;5058175;28;20197;-80
2020/12/30 00:56:12;;;;;;;33.77;24.37;;;-0.20;92.80;;;;;;5053818;28;20210;-82
2020/12/30 00:58:40;;;;;;;36.13;24.10;;;-0.20;92.80;;;;;;5061306;28;20204;-81
2020/12/30 01:01:09;;;;;;;38.57;23.03;;;-0.30;92.80;;;;;;5050424;28;20573;-82
2020/12/30 01:03:39;;;;;;;36.70;23.03;;;-0.40;92.80;;;;;;5056966;28;20239;-82
2020/12/30 01:06:11;;;;;;;32.90;21.93;;;-0.40;92.80;;;;;;5063416;28;20207;-83
2020/12/30 01:08:39;;;;;;;33.47;22.07;;;-0.30;92.80;;;;;;5049864;28;20787;-81
2020/12/30 01:11:07;;;;;;;32.70;22.40;;;-0.30;92.80;;;;;;5054659;28;20199;-82
2020/12/30 01:13:34;;;;;;;35.07;22.00;;;-0.20;92.90;;;;;;5056363;28;20728;-83
2020/12/30 01:16:01;;;;;;;34.80;22.03;;;-0.20;92.90;;;;;;5076597;28;20345;-81
2020/12/30 01:18:29;;;;;;;32.13;21.60;;;-0.10;92.90;;;;;;5084354;28;20527;-82
2020/12/30 01:21:01;;;;;;;33.43;20.67;;;0.00;93.00;;;;;;5077761;28;20197;-83
2020/12/30 01:23:31;;;;;;;34.50;21.73;;;0.00;93.00;;;;;;5091419;22;20230;-80
2020/12/30 01:25:59;;;;;;;32.23;21.97;;;0.00;93.00;;;;;;5056368;28;20201;-81
2020/12/30 01:28:26;;;;;;;32.43;21.97;;;0.10;93.00;;;;;;5036627;28;20464;-80
2020/12/30 01:30:54;;;;;;;33.97;22.00;;;0.10;93.00;;;;;;5044590;28;20212;-82
2020/12/30 01:33:21;;;;;;;37.97;22.87;;;0.20;93.00;;;;;;5049061;28;20206;-84
2020/12/30 01:35:49;;;;;;;34.33;22.37;;;0.20;93.00;;;;;;5057047;28;20202;-81
2020/12/30 01:38:16;;;;;;;35.03;22.27;;;0.30;93.00;;;;;;5062283;28;20180;-84
2020/12/30 01:40:45;;;;;;;37.83;22.30;;;0.40;93.10;;;;;;5034321;28;20574;-82
2020/12/30 01:43:14;;;;;;;34.37;21.50;;;0.30;93.00;;;;;;5038021;28;20212;-81
2020/12/30 01:45:42;;;;;;;32.97;21.87;;;0.20;93.00;;;;;;5063586;28;20186;-82
2020/12/30 01:48:16;;;;;;;35.87;21.97;;;0.00;93.00;;;;;;5057754;28;20227;-83
2020/12/30 01:50:44;;;;;;;34.43;22.67;;;0.20;93.10;;;;;;5054541;28;20203;-81
2020/12/30 01:53:12;;;;;;;38.87;23.80;;;0.40;93.10;;;;;;5060259;28;20644;-82
2020/12/30 01:55:41;;;;;;;32.73;22.23;;;0.40;93.10;;;;;;5033116;28;20209;-82
2020/12/30 01:58:10;;;;;;;36.67;22.87;;;0.30;93.10;;;;;;5029185;28;20220;-81
2020/12/30 02:00:41;;;;;;;38.17;21.63;;;0.20;93.10;;;;;;5031879;28;20911;-82
2020/12/30 02:03:09;;;;;;;31.23;22.37;;;0.20;93.10;;;;;;5023863;28;20525;-80
2020/12/30 02:05:37;;;;;;;36.77;23.90;;;0.30;93.10;;;;;;5007216;28;20694;-82
2020/12/30 02:08:06;;;;;;;40.10;24.57;;;0.40;93.10;;;;;;5034313;28;20689;-83
2020/12/30 02:10:33;;;;;;;35.77;23.23;;;0.50;93.10;;;;;;5020644;28;20205;-82
2020/12/30 02:13:01;;;;;;;37.70;23.90;;;0.50;93.10;;;;;;5028079;28;20198;-80
2020/12/30 02:15:31;;;;;;;34.47;23.17;;;0.60;93.10;;;;;;5017150;28;20576;-80
2020/12/30 02:17:59;;;;;;;36.23;23.43;;;0.60;93.10;;;;;;5027072;28;20212;-81
2020/12/30 02:20:30;;;;;;;37.13;22.97;;;0.60;93.10;;;;;;5023318;28;20751;-80
2020/12/30 02:23:03;;;;;;;38.20;24.30;;;0.60;93.10;;;;;;5032680;28;20198;-83
2020/12/30 02:25:32;;;;;;;35.67;22.73;;;0.50;93.10;;;;;;5031656;28;20320;-83
2020/12/30 02:27:59;;;;;;;37.90;22.70;;;0.50;93.10;;;;;;5034354;28;20271;-82
2020/12/30 02:30:27;;;;;;;35.13;23.10;;;0.40;93.10;;;;;;5038089;28;20491;-82
2020/12/30 02:32:55;;;;;;;38.23;24.07;;;0.40;93.10;;;;;;5034810;28;20213;-81
2020/12/30 02:35:23;;;;;;;34.77;23.07;;;0.40;93.10;;;;;;5046532;28;20205;-83
2020/12/30 02:37:55;;;;;;;34.60;22.50;;;0.30;93.10;;;;;;5034023;28;20205;-83
2020/12/30 02:40:23;;;;;;;37.93;23.30;;;0.40;93.10;;;;;;5035807;28;20240;-84
2020/12/30 02:42:51;;;;;;;36.53;24.27;;;0.40;93.10;;;;;;5033874;28;20237;-82
2020/12/30 02:45:18;;;;;;;39.27;24.03;;;0.40;93.10;;;;;;5047194;28;20216;-80
2020/12/30 02:47:46;;;;;;;35.50;24.03;;;0.40;93.10;;;;;;5042981;28;20234;-82
2020/12/30 02:50:14;;;;;;;36.63;23.93;;;0.40;93.10;;;;;;5043556;28;20250;-82
2020/12/30 02:52:41;;;;;;;37.03;22.63;;;0.40;93.10;;;;;;5053303;28;20198;-82
2020/12/30 02:55:10;;;;;;;35.60;22.33;;;0.40;93.10;;;;;;5035209;28;20296;-82
2020/12/30 02:57:38;;;;;;;33.80;22.43;;;0.40;93.10;;;;;;5018810;28;20202;-82
2020/12/30 03:00:06;;;;;;;38.20;23.67;;;0.40;93.10;;;;;;5035910;28;20201;-82
2020/12/30 03:02:34;;;;;;;34.07;22.27;;;0.40;93.10;;;;;;5016982;28;20320;-82
2020/12/30 03:05:02;;;;;;;35.23;22.43;;;0.50;93.10;;;;;;5022493;28;20245;-82
2020/12/30 03:07:29;;;;;;;35.77;22.97;;;0.50;93.10;;;;;;5032584;28;20221;-82
2020/12/30 03:09:57;;;;;;;36.20;23.67;;;0.50;93.10;;;;;;5026389;28;20215;-80
2020/12/30 03:12:24;;;;;;;39.70;24.73;;;0.40;93.10;;;;;;5027956;28;20201;-84
2020/12/30 03:14:51;;;;;;;36.70;23.13;;;0.40;93.10;;;;;;5032077;28;20250;-80
2020/12/30 03:17:20;;;;;;;36.47;24.73;;;0.40;93.10;;;;;;5013456;28;20286;-83
2020/12/30 03:19:48;;;;;;;34.63;22.33;;;0.40;93.10;;;;;;5019994;28;20337;-81
2020/12/30 03:22:15;;;;;;;36.33;22.93;;;0.50;93.10;;;;;;5038941;28;20278;-84
2020/12/30 03:24:43;;;;;;;34.57;22.20;;;0.50;93.10;;;;;;5023901;28;20218;-83
2020/12/30 03:27:10;;;;;;;35.37;22.03;;;0.70;93.10;;;;;;5039297;28;20214;-81
2020/12/30 03:29:39;;;;;;;35.93;22.50;;;0.50;93.10;;;;;;5048633;28;20557;-82
2020/12/30 03:32:07;;;;;;;35.17;22.37;;;0.60;93.10;;;;;;5025805;28;20209;-80
2020/12/30 03:34:35;;;;;;;36.73;22.43;;;0.60;93.10;;;;;;5050610;28;20193;-83
2020/12/30 03:37:03;;;;;;;32.20;22.13;;;0.60;93.10;;;;;;5040085;28;20616;-82
2020/12/30 03:39:30;;;;;;;35.13;22.33;;;0.70;93.10;;;;;;5022704;28;20202;-81
2020/12/30 03:41:58;;;;;;;34.17;21.70;;;0.70;93.10;;;;;;5036194;28;20207;-80
2020/12/30 03:44:26;;;;;;;32.47;22.43;;;0.70;93.10;;;;;;5040050;28;21122;-83
2020/12/30 03:46:53;;;;;;;34.40;22.53;;;0.70;93.10;;;;;;5016366;28;20194;-82
2020/12/30 03:49:20;;;;;;;34.53;22.30;;;0.80;93.10;;;;;;5016046;28;20203;-81
2020/12/30 03:51:49;;;;;;;32.90;22.77;;;0.90;93.10;;;;;;5037826;28;20228;-82
2020/12/30 03:54:16;;;;;;;33.10;22.47;;;0.90;93.10;;;;;;5031007;28;20203;-80
2020/12/30 03:56:44;;;;;;;34.10;21.77;;;1.00;93.10;;;;;;5025392;28;20203;-81
2020/12/30 03:59:11;;;;;;;31.77;22.37;;;1.00;93.10;;;;;;5042806;28;20258;-81
2020/12/30 04:01:39;;;;;;;32.40;21.67;;;1.00;93.10;;;;;;5025466;28;20688;-82
2020/12/30 04:04:07;;;;;;;31.73;21.80;;;1.00;93.20;;;;;;5029777;28;20197;-82
2020/12/30 04:06:34;;;;;;;35.33;21.93;;;1.10;93.20;;;;;;5021469;28;20305;-81
2020/12/30 04:09:03;;;;;;;38.50;22.07;;;1.10;93.20;;;;;;5026785;28;20791;-82
2020/12/30 04:11:30;;;;;;;37.93;23.23;;;1.10;93.20;;;;;;5037839;28;20200;-81
2020/12/30 04:13:57;;;;;;;36.70;21.87;;;1.20;93.20;;;;;;5058160;28;20198;-81
2020/12/30 04:16:26;;;;;;;32.53;21.87;;;1.20;93.20;;;;;;5055985;28;20182;-81
2020/12/30 04:18:56;;;;;;;34.50;21.57;;;1.20;93.20;;;;;;5020950;28;20284;-82
2020/12/30 04:21:25;;;;;;;33.70;21.53;;;1.10;93.20;;;;;;5030021;28;20206;-82
2020/12/30 04:23:55;;;;;;;34.47;22.30;;;1.30;93.20;;;;;;5016806;28;20225;-81
2020/12/30 04:26:23;;;;;;;36.50;23.70;;;1.20;93.20;;;;;;5027215;28;20228;-82
2020/12/30 04:28:51;;;;;;;36.20;23.80;;;1.20;93.20;;;;;;5024351;28;20280;-82
2020/12/30 04:31:20;;;;;;;37.70;22.47;;;1.30;93.30;;;;;;5026909;28;20217;-80
2020/12/30 04:33:47;;;;;;;30.33;20.73;;;1.20;93.20;;;;;;5025065;28;20210;-81
2020/12/30 04:36:15;;;;;;;24.13;16.23;;;1.30;93.30;;;;;;5039875;28;20206;-81
2020/12/30 04:38:43;;;;;;;29.00;20.20;;;1.40;93.30;;;;;;5023008;28;20652;-81
2020/12/30 04:41:12;;;;;;;25.70;16.40;;;1.60;93.30;;;;;;5036656;28;20682;-82
2020/12/30 04:43:43;;;;;;;30.10;19.73;;;1.90;93.30;;;;;;5043534;28;20186;-84
2020/12/30 04:46:12;;;;;;;26.80;18.67;;;2.30;93.30;;;;;;5036719;28;20764;-81
2020/12/30 04:48:41;;;;;;;24.20;15.83;;;2.10;93.30;;;;;;5027035;28;20466;-82
2020/12/30 04:51:10;;;;;;;26.10;17.23;;;2.30;93.40;;;;;;5036033;28;20198;-81
2020/12/30 04:53:40;;;;;;;21.47;14.50;;;2.40;93.40;;;;;;5036788;28;20688;-83
2020/12/30 04:56:10;;;;;;;22.80;14.83;;;2.60;93.40;;;;;;5025084;28;20211;-81
2020/12/30 04:58:38;;;;;;;20.27;14.87;;;2.70;93.40;;;;;;5033158;28;20199;-81
2020/12/30 05:01:09;;;;;;;23.60;15.13;;;2.90;93.40;;;;;;5024268;28;20211;-81
2020/12/30 05:03:45;;;;;;;21.47;14.27;;;3.00;93.40;;;;;;5040890;28;20405;-82
2020/12/30 05:06:16;;;;;;;20.27;14.70;;;3.00;93.50;;;;;;5022158;28;20203;-80
2020/12/30 05:08:43;;;;;;;20.20;13.93;;;3.20;93.50;;;;;;5019193;28;20587;-83
2020/12/30 05:11:11;;;;;;;21.20;14.50;;;3.30;93.60;;;;;;5022861;28;20297;-82
2020/12/30 05:13:39;;;;;;;21.33;14.43;;;3.40;93.60;;;;;;5026654;28;20491;-81
2020/12/30 05:16:07;;;;;;;19.20;14.90;;;3.40;93.60;;;;;;5008617;28;20207;-80
2020/12/30 05:18:40;;;;;;;18.90;13.70;;;3.50;93.70;;;;;;5031200;28;20652;-82
2020/12/30 05:21:07;;;;;;;19.13;13.67;;;3.50;93.70;;;;;;5022654;28;20568;-82
2020/12/30 05:23:36;;;;;;;18.83;12.93;;;3.50;93.80;;;;;;5042213;28;20212;-80
2020/12/30 05:26:04;;;;;;;15.87;13.00;;;3.50;93.80;;;;;;5026805;28;20223;-81
2020/12/30 05:28:32;;;;;;;20.47;13.10;;;3.50;93.90;;;;;;5032308;28;20220;-81
2020/12/30 05:31:00;;;;;;;20.43;13.43;;;3.50;93.90;;;;;;5031200;28;20730;-82
2020/12/30 05:33:30;;;;;;;18.13;13.43;;;3.50;93.90;;;;;;5041403;28;20569;-83
2020/12/30 05:36:00;;;;;;;17.10;12.73;;;3.50;94.00;;;;;;5025735;28;20432;-82
2020/12/30 05:38:28;;;;;;;17.63;12.40;;;3.50;94.00;;;;;;5051302;28;20199;-82
2020/12/30 05:40:56;;;;;;;19.63;13.00;;;3.50;94.00;;;;;;5048679;28;20206;-82
2020/12/30 05:43:24;;;;;;;18.77;12.90;;;3.40;94.00;;;;;;5059953;28;20312;-81
2020/12/30 05:45:53;;;;;;;18.57;12.33;;;3.40;94.00;;;;;;5022203;28;20741;-82
2020/12/30 05:48:25;;;;;;;17.50;12.20;;;3.40;94.10;;;;;;5026842;28;20231;-82
2020/12/30 05:50:55;;;;;;;15.97;12.03;;;3.40;94.10;;;;;;5026480;28;20214;-82
2020/12/30 05:53:23;;;;;;;16.73;12.37;;;3.40;94.10;;;;;;5049601;28;20193;-82
2020/12/30 05:55:52;;;;;;;18.57;13.13;;;3.40;94.10;;;;;;5036787;28;20409;-82
2020/12/30 05:58:20;;;;;;;16.33;11.63;;;3.30;94.10;;;;;;5019598;28;20208;-83
2020/12/30 06:00:48;;;;;;;17.00;12.07;;;3.30;94.10;;;;;;5034653;28;20585;-80
2020/12/30 06:03:26;;;;;;;16.87;12.53;;;3.30;94.10;;;;;;5024601;28;20537;-83
2020/12/30 06:05:57;;;;;;;17.50;11.83;;;3.40;94.10;;;;;;5026470;28;20479;-82
2020/12/30 06:08:27;;;;;;;17.80;12.37;;;3.40;94.10;;;;;;5038024;28;20218;-82
2020/12/30 06:10:57;;;;;;;17.63;12.80;;;3.40;94.10;;;;;;5028494;28;20659;-81
2020/12/30 06:13:36;;;;;;;19.90;12.00;;;3.40;94.10;;;;;;5027608;28;20203;-82
2020/12/30 06:16:09;;;;;;;18.03;13.03;;;3.50;94.10;;;;;;5030376;28;20574;-83
2020/12/30 06:18:40;;;;;;;22.40;13.43;;;3.50;94.10;;;;;;5027503;28;20220;-82
2020/12/30 06:21:10;;;;;;;16.97;12.87;;;3.50;94.10;;;;;;5035157;28;20721;-82
2020/12/30 06:23:43;;;;;;;18.17;13.30;;;3.40;94.20;;;;;;5049528;28;20224;-81
2020/12/30 06:26:18;;;;;;;17.03;12.27;;;3.40;94.10;;;;;;5033941;28;20666;-82
2020/12/30 06:28:49;;;;;;;17.93;12.90;;;3.40;94.10;;;;;;5031642;28;20325;-83
2020/12/30 06:31:17;;;;;;;21.20;14.33;;;3.40;94.20;;;;;;5021878;28;20205;-82
2020/12/30 06:33:44;;;;;;;20.03;13.33;;;3.40;94.10;;;;;;5039581;28;20643;-83
2020/12/30 06:36:23;;;;;;;22.60;13.63;;;3.50;94.10;;;;;;5045752;28;20225;-82
2020/12/30 06:38:50;;;;;;;23.87;15.17;;;3.50;94.10;;;;;;5036907;28;20234;-81
2020/12/30 06:41:18;;;;;;;33.90;21.20;;;3.60;94.10;;;;;;5024101;28;20722;-84
2020/12/30 06:43:47;;;;;;;24.47;16.70;;;3.70;94.10;;;;;;5028141;28;20196;-83
2020/12/30 06:46:19;;;;;;;33.17;24.33;;;3.80;94.10;;;;;;5025039;28;20220;-83
2020/12/30 06:48:53;;;;;;;32.37;21.90;;;3.80;94.10;;;;;;5015326;28;20773;-81
2020/12/30 06:51:22;;;;;;;28.63;20.67;;;3.80;94.20;;;;;;5031826;28;20266;-84
2020/12/30 06:53:51;;;;;;;27.27;18.97;;;3.70;94.10;;;;;;5045041;28;20226;-82
2020/12/30 06:56:39;;;;;;;33.37;21.83;;;3.80;94.20;;;;;;5046305;28;20276;-82
2020/12/30 06:59:08;;;;;;;28.30;21.00;;;3.70;94.20;;;;;;5040132;28;20211;-82
2020/12/30 07:01:56;;;;;;;30.37;20.27;;;3.70;94.20;;;;;;5045091;28;20445;-82
2020/12/30 07:04:24;;;;;;;27.70;18.03;;;3.70;94.20;;;;;;5044275;28;20194;-81
2020/12/30 07:06:53;;;;;;;26.63;17.57;;;3.70;94.20;;;;;;5062968;28;20278;-80
2020/12/30 07:09:29;;;;;;;34.63;21.10;;;3.70;94.20;;;;;;5060097;28;20220;-82
2020/12/30 07:11:58;;;;;;;28.40;19.67;;;3.70;94.20;;;;;;5055832;28;20271;-82
2020/12/30 07:14:27;;;;;;;25.60;18.77;;;3.60;94.20;;;;;;5050846;28;20221;-82
2020/12/30 07:16:56;;;;;;;30.10;19.00;;;3.60;94.20;;;;;;5056860;28;20710;-82
2020/12/30 07:19:24;;;;;;;23.60;15.30;;;3.60;94.20;;;;;;5057242;28;20216;-80
2020/12/30 07:21:57;;;;;;;25.60;16.90;;;3.60;94.20;;;;;;5059488;28;20197;-82
2020/12/30 07:24:26;;;;;;;23.80;17.00;;;3.60;94.20;;;;;;5051868;28;20202;-82
2020/12/30 07:26:59;;;;;;;24.70;16.53;;;3.70;94.20;;;;;;5057031;28;20188;-83
2020/12/30 07:29:27;;;;;;;25.13;18.03;;;3.70;94.20;;;;;;5037170;28;20241;-83
2020/12/30 07:31:58;;;;;;;26.67;17.47;;;3.80;94.20;;;;;;5039824;28;20197;-80
2020/12/30 07:34:27;;;;;;;23.37;16.60;;;3.80;94.20;;;;;;5014372;28;21028;-82
2020/12/30 07:36:56;;;;;;;31.73;21.33;;;3.90;94.20;;;;;;5041402;28;20208;-82
2020/12/30 07:39:29;;;;;;;27.77;17.57;;;4.00;94.20;;;;;;5029218;28;20208;-81
2020/12/30 07:41:57;;;;;;;25.90;17.03;;;4.00;94.20;;;;;;5032729;28;20213;-81
2020/12/30 07:44:25;;;;;;;24.30;16.33;;;4.10;94.20;;;;;;5027396;28;20365;-83
2020/12/30 07:47:00;;;;;;;24.90;15.23;;;4.10;94.20;;;;;;5026569;28;20222;-82
2020/12/30 07:49:28;;;;;;;23.40;16.63;;;4.30;94.30;;;;;;5028509;28;20268;-83
2020/12/30 07:51:57;;;;;;;24.20;15.80;;;4.10;94.20;;;;;;5028496;28;20212;-83
2020/12/30 07:54:27;;;;;;;25.33;16.77;;;4.10;94.20;;;;;;5019920;28;20412;-82
2020/12/30 07:57:01;;;;;;;22.13;15.23;;;4.10;94.20;;;;;;5027061;28;20202;-81
2020/12/30 07:59:30;;;;;;;28.37;14.60;;;4.10;94.30;;;;;;5018885;28;20250;-83
2020/12/30 08:02:02;;;;;;;26.27;17.63;;;4.20;94.30;;;;;;5026694;28;20205;-81
2020/12/30 08:04:31;;;;;;;22.57;15.93;;;4.30;94.30;;;;;;5029445;28;20649;-82
2020/12/30 08:07:03;;;;;;;24.17;15.67;;;4.30;94.30;;;;;;5018033;28;20213;-83
2020/12/30 08:09:31;;;;;;;24.87;14.50;;;4.30;94.30;;;;;;5032583;28;20587;-81
2020/12/30 08:12:00;;;;;;;25.83;16.27;;;4.30;94.30;;;;;;5034027;28;20441;-81
2020/12/30 08:14:29;;;;;;;22.97;15.47;;;4.40;94.30;;;;;;5043667;28;20251;-82
2020/12/30 08:17:04;;;;;;;26.57;16.00;;;4.40;94.30;;;;;;5028266;28;20360;-83
2020/12/30 08:19:38;;;;;;;24.90;15.77;;;4.50;94.30;;;;;;5025235;28;20477;-83
2020/12/30 08:22:09;;;;;;;22.37;16.20;;;4.50;94.30;;;;;;5031214;28;20201;-81
2020/12/30 08:24:39;;;;;;;35.13;16.67;;;4.50;94.30;;;;;;5006744;28;20269;-81
2020/12/30 08:27:07;;;;;;;26.67;16.53;;;4.60;94.40;;;;;;5034123;28;20209;-82
2020/12/30 08:29:56;;;;;;;22.13;14.90;;;4.60;94.40;;;;;;5033923;28;20226;-84
2020/12/30 08:32:37;;;;;;;22.97;15.30;;;4.60;94.40;;;;;;5043549;28;20198;-83
2020/12/30 08:35:08;;;;;;;24.87;16.10;;;4.70;94.40;;;;;;5052892;28;20185;-82
2020/12/30 08:37:40;;;;;;;21.80;15.73;;;4.70;94.40;;;;;;5031712;28;20244;-83
2020/12/30 08:40:21;;;;;;;23.27;15.43;;;4.70;94.40;;;;;;5025264;28;21493;-81
2020/12/30 08:43:33;;;;;;;22.60;15.87;;;4.80;94.50;;;;;;5020654;28;20197;-84
2020/12/30 08:46:06;;;;;;;21.50;16.03;;;4.90;94.50;;;;;;5033572;28;20263;-82
2020/12/30 08:48:42;;;;;;;25.27;16.37;;;4.90;94.50;;;;;;5024029;28;20486;-82
2020/12/30 08:51:10;;;;;;;22.57;16.10;;;5.00;94.50;;;;;;5015365;28;20206;-83
2020/12/30 08:53:39;;;;;;;22.47;16.47;;;5.00;94.50;;;;;;5019953;28;20716;-84
2020/12/30 08:56:09;;;;;;;27.97;17.43;;;5.00;94.50;;;;;;5026034;28;20199;-82
2020/12/30 08:58:38;;;;;;;23.63;16.53;;;5.00;94.60;;;;;;5027974;28;20241;-83
2020/12/30 09:01:20;;;;;;;26.57;19.10;;;5.10;94.60;;;;;;5038505;28;20480;-82
2020/12/30 09:03:48;;;;;;;33.20;22.10;;;5.10;94.60;;;;;;5037722;28;20198;-82
2020/12/30 09:06:28;;;;;;;36.87;23.53;;;5.20;94.60;;;;;;5026350;28;20290;-82
2020/12/30 09:09:09;;;;;;;38.73;25.37;;;5.20;94.60;;;;;;5026301;28;20240;-83
2020/12/30 09:11:38;;;;;;;34.97;25.53;;;5.20;94.60;;;;;;5028709;28;20235;-83
2020/12/30 09:14:17;;;;;;;38.17;24.60;;;5.30;94.70;;;;;;5039775;28;20195;-82
2020/12/30 09:17:05;;;;;;;32.97;23.97;;;5.30;94.70;;;;;;5001285;28;21440;-82
2020/12/30 09:19:32;;;;;;;30.47;22.53;;;5.40;94.80;;;;;;5030008;28;20211;-84
2020/12/30 09:22:07;;;;;;;28.00;19.30;;;5.40;94.80;;;;;;5028870;28;20214;-83
2020/12/30 09:24:36;;;;;;;27.40;19.20;;;5.40;94.80;;;;;;5040549;28;20300;-85
2020/12/30 09:27:22;;;;;;;26.73;19.60;;;5.40;94.80;;;;;;5018445;28;20191;-83
2020/12/30 09:30:11;;;;;;;29.63;21.27;;;5.40;94.80;;;;;;5030562;28;20217;-82
2020/12/30 09:32:40;;;;;;;30.30;22.40;;;5.50;94.90;;;;;;5028043;28;20260;-81
2020/12/30 09:35:10;;;;;;;32.53;21.80;;;5.50;94.90;;;;;;5024850;28;20202;-81
2020/12/30 09:37:38;;;;;;;32.87;22.37;;;5.50;94.90;;;;;;5035881;28;20291;-84
2020/12/30 09:40:15;;;;;;;29.87;21.67;;;5.50;94.90;;;;;;5024632;28;20284;-82
2020/12/30 09:42:43;;;;;;;31.33;21.70;;;5.60;94.90;;;;;;5030958;28;20210;-82
2020/12/30 09:45:19;;;;;;;30.73;22.23;;;5.60;94.90;;;;;;5034207;28;20296;-83
2020/12/30 09:47:47;;;;;;;31.17;22.27;;;5.60;94.90;;;;;;5019964;28;20202;-82
2020/12/30 09:50:17;;;;;;;31.00;22.40;;;5.70;95.00;;;;;;5027895;28;20210;-82
2020/12/30 09:52:46;;;;;;;30.57;22.17;;;5.70;95.00;;;;;;5029389;28;20203;-83
2020/12/30 09:55:16;;;;;;;34.03;23.17;;;5.80;95.00;;;;;;5033372;28;20201;-81
2020/12/30 09:57:44;;;;;;;31.33;22.23;;;5.80;95.00;;;;;;5047842;28;20209;-82
2020/12/30 10:00:12;;;;;;;30.53;22.47;;;5.90;95.00;;;;;;5051365;28;20209;-83
2020/12/30 10:02:40;;;;;;;27.90;21.30;;;5.90;95.00;;;;;;5063357;28;20249;-83
2020/12/30 10:05:09;;;;;;;27.17;20.73;;;5.90;95.00;;;;;;5041416;28;20206;-82
2020/12/30 10:07:38;;;;;;;29.73;20.47;;;5.90;95.10;;;;;;5046125;28;20255;-82
2020/12/30 10:10:06;;;;;;;26.90;19.83;;;5.90;95.10;;;;;;5049820;28;20313;-81
2020/12/30 10:12:38;;;;;;;24.03;18.33;;;6.00;95.10;;;;;;5041333;28;20435;-83
2020/12/30 10:15:06;;;;;;;22.53;17.60;;;5.90;95.10;;;;;;5046263;28;20208;-82
2020/12/30 10:17:35;;;;;;;21.00;16.00;;;6.10;95.10;;;;;;5048193;28;20229;-81
2020/12/30 10:20:05;;;;;;;21.93;14.67;;;6.00;95.10;;;;;;5092329;22;20633;-81
2020/12/30 10:22:33;;;;;;;19.67;13.30;;;6.00;95.10;;;;;;5051552;28;20194;-81
2020/12/30 10:25:05;;;;;;;19.37;13.83;;;6.10;95.10;;;;;;5025470;28;20214;-83
2020/12/30 10:27:33;;;;;;;18.30;12.97;;;6.00;95.10;;;;;;5015619;28;20304;-83
2020/12/30 10:30:07;;;;;;;19.53;13.53;;;6.00;95.10;;;;;;5027436;28;20290;-81
2020/12/30 10:32:35;;;;;;;18.50;13.10;;;6.00;95.10;;;;;;5043409;28;20192;-83
2020/12/30 10:35:04;;;;;;;19.50;13.47;;;6.10;95.10;;;;;;5036976;28;20238;-81
2020/12/30 10:37:32;;;;;;;19.57;12.43;;;6.10;95.10;;;;;;5023772;28;20195;-83
2020/12/30 10:40:00;;;;;;;14.03;11.30;;;6.20;95.10;;;;;;5029722;28;20203;-82
2020/12/30 10:42:28;;;;;;;16.37;12.30;;;6.10;95.10;;;;;;5029070;28;20209;-80
2020/12/30 10:44:56;;;;;;;16.93;12.30;;;6.20;95.00;;;;;;5030304;28;20478;-82
2020/12/30 10:47:24;;;;;;;17.10;12.50;;;6.20;94.90;;;;;;5032997;28;20274;-84
2020/12/30 10:49:52;;;;;;;18.03;11.60;;;6.20;94.90;;;;;;5040436;28;20266;-82
2020/12/30 10:52:21;;;;;;;17.00;12.03;;;6.20;94.80;;;;;;5016713;28;20223;-81
2020/12/30 10:54:49;;;;;;;19.40;12.87;;;6.10;94.70;;;;;;5041993;28;20215;-82
2020/12/30 10:57:17;;;;;;;22.53;14.63;;;6.10;94.60;;;;;;5038293;28;20206;-82
2020/12/30 10:59:45;;;;;;;25.77;20.03;;;6.10;94.50;;;;;;5034790;28;20612;-82
2020/12/30 11:02:12;;;;;;;24.17;16.87;;;6.10;94.40;;;;;;5027743;28;20213;-82
2020/12/30 11:04:41;;;;;;;20.63;15.17;;;6.10;94.30;;;;;;5030975;28;20199;-81
2020/12/30 11:07:08;;;;;;;24.07;16.90;;;6.10;94.30;;;;;;5020582;28;20369;-82
2020/12/30 11:09:36;;;;;;;23.13;17.63;;;6.00;94.30;;;;;;5033678;28;20505;-80
2020/12/30 11:12:22;;;;;;;23.83;16.80;;;5.90;94.30;;;;;;5033406;28;20206;-83
2020/12/30 11:14:50;;;;;;;24.70;17.40;;;5.80;94.40;;;;;;5043343;28;20545;-83
2020/12/30 11:17:18;;;;;;;21.50;16.93;;;5.90;94.50;;;;;;5032370;28;20287;-82
2020/12/30 11:19:46;;;;;;;24.67;17.00;;;5.90;94.50;;;;;;5026670;28;20202;-82
2020/12/30 11:22:14;;;;;;;29.90;18.67;;;5.90;94.50;;;;;;5035370;28;20431;-83
2020/12/30 11:24:43;;;;;;;23.77;17.83;;;5.90;94.50;;;;;;5054461;28;20202;-82
2020/12/30 11:27:11;;;;;;;22.90;16.87;;;5.90;94.50;;;;;;5049032;28;20309;-81
2020/12/30 11:29:39;;;;;;;26.00;17.57;;;5.80;94.50;;;;;;5042853;28;20229;-80
2020/12/30 11:32:06;;;;;;;25.67;17.63;;;5.80;94.50;;;;;;5039049;28;20198;-82
2020/12/30 11:34:34;;;;;;;27.67;18.70;;;5.80;94.40;;;;;;5045012;28;20219;-82
2020/12/30 11:37:02;;;;;;;25.57;18.10;;;5.90;94.50;;;;;;5045753;28;20213;-81
2020/12/30 11:39:30;;;;;;;29.77;19.27;;;5.80;94.50;;;;;;5037765;28;20537;-80
2020/12/30 11:41:58;;;;;;;26.93;18.63;;;5.80;94.50;;;;;;5041635;28;20181;-84
2020/12/30 11:44:26;;;;;;;30.33;18.40;;;5.70;94.40;;;;;;5048455;28;20174;-81
2020/12/30 11:46:53;;;;;;;27.17;19.57;;;5.70;94.40;;;;;;5038088;28;20647;-82
2020/12/30 11:49:21;;;;;;;28.17;18.20;;;5.70;94.40;;;;;;5032970;28;20641;-82
2020/12/30 11:51:49;;;;;;;27.63;18.93;;;5.80;94.50;;;;;;5036818;28;20198;-83
2020/12/30 11:54:18;;;;;;;27.37;19.23;;;5.80;94.50;;;;;;5039766;28;20203;-83
2020/12/30 11:56:46;;;;;;;27.57;18.47;;;5.80;94.50;;;;;;5030735;28;20301;-80
2020/12/30 11:59:14;;;;;;;27.43;18.23;;;5.90;94.50;;;;;;5041369;28;20209;-81
2020/12/30 12:01:41;;;;;;;26.73;18.13;;;5.80;94.40;;;;;;5031372;28;20205;-81
2020/12/30 12:04:14;;;;;;;26.60;18.00;;;5.80;94.30;;;;;;5033481;28;20202;-83
2020/12/30 12:06:41;;;;;;;27.00;16.80;;;5.90;94.40;;;;;;5042386;28;20206;-83
2020/12/30 12:09:09;;;;;;;28.53;16.90;;;5.90;94.30;;;;;;5030902;28;20249;-83
2020/12/30 12:11:37;;;;;;;23.73;17.17;;;5.90;94.10;;;;;;5031449;28;20681;-80
2020/12/30 12:14:05;;;;;;;27.83;18.13;;;5.80;94.00;;;;;;5036991;28;20218;-84
2020/12/30 12:16:32;;;;;;;23.73;17.73;;;5.90;93.90;;;;;;5040768;28;20202;-83
2020/12/30 12:19:00;;;;;;;26.30;17.13;;;5.80;93.90;;;;;;5047555;28;20206;-82
2020/12/30 12:21:27;;;;;;;24.13;16.90;;;5.90;93.80;;;;;;5037369;28;20280;-84
2020/12/30 12:23:55;;;;;;;22.57;16.30;;;5.90;93.80;;;;;;5038610;28;20209;-82
2020/12/30 12:26:23;;;;;;;25.13;16.50;;;5.90;93.60;;;;;;5053631;28;20509;-82
2020/12/30 12:29:00;;;;;;;27.33;16.57;;;5.90;93.50;;;;;;5046585;28;20579;-82
2020/12/30 12:31:28;;;;;;;23.27;15.90;;;5.90;93.50;;;;;;5055414;28;20280;-83
2020/12/30 12:33:55;;;;;;;21.37;16.53;;;5.90;93.40;;;;;;5053895;28;20255;-82
2020/12/30 12:36:23;;;;;;;23.03;15.70;;;5.90;93.30;;;;;;5053322;28;20412;-81
2020/12/30 12:38:51;;;;;;;20.57;14.97;;;5.90;93.40;;;;;;5057369;28;20192;-83
2020/12/30 12:41:21;;;;;;;20.13;15.57;;;5.90;93.20;;;;;;5053110;28;20209;-82
2020/12/30 12:43:49;;;;;;;18.93;14.77;;;6.10;93.30;;;;;;5057131;28;20206;-82
2020/12/30 12:46:19;;;;;;;20.53;14.67;;;5.90;93.20;;;;;;5051709;28;20185;-83
2020/12/30 12:48:47;;;;;;;23.63;15.80;;;6.00;93.30;;;;;;5053055;28;20223;-82